createdAt,value
2022-09-07T00:01:07.568Z,22.33
2022-09-07T00:03:35.906Z,22.30
2022-09-07T00:06:10.116Z,22.30
2022-09-07T00:08:39.766Z,22.28
2022-09-07T00:11:13.065Z,22.28
2022-09-07T00:13:43.380Z,22.30
2022-09-07T00:16:32.906Z,22.30
2022-09-07T00:19:03.756Z,22.27
2022-09-07T00:21:32.041Z,22.25
2022-09-07T00:23:59.919Z,22.21
2022-09-07T00:26:30.774Z,22.20
2022-09-07T00:29:04.325Z,22.16
2022-09-07T00:31:32.356Z,22.17
2022-09-07T00:34:02.452Z,22.20
2022-09-07T00:36:30.854Z,22.19
2022-09-07T00:38:59.104Z,22.13
2022-09-07T00:41:26.743Z,22.18
2022-09-07T00:43:57.704Z,22.18
2022-09-07T00:46:34.180Z,22.20
2022-09-07T00:49:10.957Z,22.20
2022-09-07T00:51:58.563Z,22.19
2022-09-07T00:54:46.255Z,22.15
2022-09-07T00:57:14.681Z,22.12
2022-09-07T00:59:50.415Z,22.10
2022-09-07T01:02:19.316Z,22.07
2022-09-07T01:04:57.371Z,22.04
2022-09-07T01:07:25.242Z,22.01
2022-09-07T01:09:53.017Z,22.02
2022-09-07T01:12:20.621Z,22.02
2022-09-07T01:14:52.069Z,22.02
2022-09-07T01:17:51.561Z,22.00
2022-09-07T01:20:55.634Z,21.98
2022-09-07T01:23:44.340Z,21.96
2022-09-07T01:26:39.779Z,21.92
2022-09-07T01:29:52.965Z,21.88
2022-09-07T01:32:38.024Z,21.85
2022-09-07T01:35:31.789Z,21.84
2022-09-07T01:38:22.782Z,21.90
2022-09-07T01:41:20.937Z,21.91
2022-09-07T01:44:10.794Z,21.89
2022-09-07T01:47:07.090Z,21.87
2022-09-07T01:49:51.375Z,21.88
2022-09-07T01:52:50.005Z,21.88
2022-09-07T01:55:37.425Z,21.89
2022-09-07T01:58:42.352Z,21.87
2022-09-07T02:01:25.527Z,21.80
2022-09-07T02:04:25.475Z,21.78
2022-09-07T02:07:32.916Z,21.71
2022-09-07T02:10:17.527Z,21.69
2022-09-07T02:12:53.386Z,21.66
2022-09-07T02:16:01.872Z,21.64
2022-09-07T02:18:43.866Z,21.60
2022-09-07T02:21:13.343Z,21.57
2022-09-07T02:24:00.785Z,21.57
2022-09-07T02:26:29.495Z,21.55
2022-09-07T02:28:57.667Z,21.52
2022-09-07T02:31:25.409Z,21.50
2022-09-07T02:33:53.048Z,21.50
2022-09-07T02:36:24.899Z,21.45
2022-09-07T02:38:53.073Z,21.41
2022-09-07T02:41:38.512Z,21.40
2022-09-07T02:44:21.263Z,21.35
2022-09-07T02:46:51.638Z,21.32
2022-09-07T02:49:58.525Z,21.32
2022-09-07T02:52:31.581Z,21.30
2022-09-07T02:55:27.215Z,21.34
2022-09-07T02:58:22.917Z,21.28
2022-09-07T03:01:08.546Z,21.26
2022-09-07T03:04:18.675Z,21.28
2022-09-07T03:07:03.966Z,21.27
2022-09-07T03:09:42.551Z,21.26
2022-09-07T03:12:11.393Z,21.26
2022-09-07T03:14:44.072Z,21.25
2022-09-07T03:17:13.302Z,21.25
2022-09-07T03:19:41.045Z,21.22
2022-09-07T03:22:08.831Z,21.19
2022-09-07T03:24:37.104Z,21.19
2022-09-07T03:27:04.735Z,21.18
2022-09-07T03:29:32.345Z,21.18
2022-09-07T03:32:00.275Z,21.18
2022-09-07T03:34:28.377Z,21.18
2022-09-07T03:36:55.949Z,21.19
2022-09-07T03:39:26.381Z,21.19
2022-09-07T03:41:53.979Z,21.22
2022-09-07T03:44:21.840Z,21.22
2022-09-07T03:46:49.693Z,21.22
2022-09-07T03:49:17.489Z,21.22
2022-09-07T03:54:12.738Z,21.17
2022-09-07T03:56:40.271Z,21.16
2022-09-07T03:59:07.870Z,21.15
2022-09-07T04:01:36.478Z,21.12
2022-09-07T04:04:04.219Z,21.10
2022-09-07T04:06:32.547Z,21.09
2022-09-07T04:09:11.881Z,21.10
2022-09-07T04:11:42.853Z,21.07
2022-09-07T04:14:11.694Z,21.07
2022-09-07T04:16:39.769Z,21.04
2022-09-07T04:19:07.391Z,21.03
2022-09-07T04:21:35.198Z,21.02
2022-09-07T04:24:03.255Z,21.03
2022-09-07T04:26:34.197Z,21.00
2022-09-07T04:29:02.923Z,20.98
2022-09-07T04:31:31.134Z,20.96
2022-09-07T04:33:59.481Z,20.94
2022-09-07T04:36:28.251Z,20.94
2022-09-07T04:39:02.254Z,20.95
2022-09-07T04:41:32.579Z,20.93
2022-09-07T04:44:02.709Z,20.96
2022-09-07T04:46:34.607Z,20.97
2022-09-07T04:49:08.502Z,21.02
2022-09-07T04:51:37.784Z,21.04
2022-09-07T04:54:05.537Z,21.08
2022-09-07T04:56:33.961Z,21.13
2022-09-07T04:59:03.094Z,21.18
2022-09-07T05:01:30.860Z,21.23
2022-09-07T05:04:01.321Z,21.27
2022-09-07T05:06:30.387Z,21.30
2022-09-07T05:08:59.482Z,21.38
2022-09-07T05:11:29.682Z,21.41
2022-09-07T05:14:03.029Z,21.47
2022-09-07T05:16:32.004Z,21.53
2022-09-07T05:19:03.515Z,21.60
2022-09-07T05:21:35.301Z,21.66
2022-09-07T05:24:04.703Z,21.72
2022-09-07T05:26:35.605Z,21.78
2022-09-07T05:31:54.510Z,21.83
2022-09-07T05:34:30.233Z,21.88
2022-09-07T05:36:58.705Z,21.91
2022-09-07T05:39:26.845Z,21.94
2022-09-07T05:41:54.548Z,21.99
2022-09-07T05:47:10.798Z,22.08
2022-09-07T05:49:38.627Z,22.13
2022-09-07T05:52:07.512Z,22.18
2022-09-07T05:54:35.141Z,22.21
2022-09-07T05:57:03.742Z,22.26
2022-09-07T05:59:31.650Z,22.31
2022-09-07T06:02:00.055Z,22.35
2022-09-07T06:04:28.047Z,22.41
2022-09-07T06:12:31.086Z,22.57
2022-09-07T06:15:01.086Z,22.63
2022-09-07T06:17:30.072Z,22.68
2022-09-07T06:19:57.862Z,22.73
2022-09-07T06:22:30.120Z,22.79
2022-09-07T06:24:58.977Z,22.84
2022-09-07T06:27:27.035Z,22.88
2022-09-07T06:29:55.584Z,22.92
2022-09-07T06:35:12.367Z,23.06
2022-09-07T06:37:40.558Z,23.13
2022-09-07T06:40:10.638Z,23.21
2022-09-07T06:42:39.114Z,23.29
2022-09-07T06:45:11.533Z,23.35
2022-09-07T06:47:40.884Z,23.41
2022-09-07T06:50:09.621Z,23.45
2022-09-07T06:55:27.968Z,23.47
2022-09-07T06:57:55.531Z,23.48
2022-09-07T07:00:23.025Z,23.51
2022-09-07T07:02:50.943Z,23.56
2022-09-07T07:05:18.574Z,23.63
2022-09-07T07:07:46.172Z,23.72
2022-09-07T07:10:14.090Z,23.82
2022-09-07T07:15:09.166Z,24.05
2022-09-07T07:17:36.911Z,24.16
2022-09-07T07:20:05.097Z,24.24
2022-09-07T07:22:48.419Z,24.35
2022-09-07T07:25:16.538Z,24.46
2022-09-07T07:27:48.257Z,24.54
2022-09-07T07:30:17.793Z,24.60
2022-09-07T07:32:46.903Z,24.64
2022-09-07T07:35:15.186Z,24.69
2022-09-07T07:37:42.699Z,24.75
2022-09-07T07:42:46.130Z,24.88
2022-09-07T07:48:02.813Z,25.00
2022-09-07T07:50:34.002Z,25.07
2022-09-07T07:55:53.282Z,25.20
2022-09-07T07:58:21.330Z,25.27
2022-09-07T08:00:56.970Z,25.29
2022-09-07T08:03:26.362Z,25.34
2022-09-07T08:05:54.992Z,25.36
2022-09-07T08:08:24.510Z,25.39
2022-09-07T08:10:53.023Z,25.42
2022-09-07T08:13:21.538Z,25.45
2022-09-07T08:15:49.443Z,25.51
2022-09-07T08:18:18.139Z,25.53
2022-09-07T08:20:45.754Z,25.56
2022-09-07T08:23:13.282Z,25.60
2022-09-07T08:25:51.129Z,25.60
2022-09-07T08:28:20.265Z,25.58
2022-09-07T08:30:48.369Z,25.57
2022-09-07T08:33:16.125Z,25.56
2022-09-07T08:35:43.711Z,25.53
2022-09-07T08:38:11.492Z,25.51
2022-09-07T08:40:39.352Z,25.54
2022-09-07T08:43:49.343Z,25.61
2022-09-07T08:47:00.643Z,25.70
2022-09-07T08:49:35.456Z,25.74
2022-09-07T08:52:21.701Z,25.76
2022-09-07T08:55:10.563Z,25.82
2022-09-07T08:57:50.742Z,25.81
2022-09-07T09:00:19.181Z,25.80
2022-09-07T09:05:56.798Z,25.81
2022-09-07T09:06:11.731Z,25.81
2022-09-07T09:08:49.217Z,25.83
2022-09-07T09:12:01.632Z,25.87
2022-09-07T09:14:53.907Z,25.83
2022-09-07T09:17:59.649Z,25.80
2022-09-07T09:20:41.075Z,25.78
2022-09-07T09:23:15.589Z,25.83
2022-09-07T09:25:59.982Z,25.89
2022-09-07T09:28:30.267Z,25.88
2022-09-07T09:31:00.295Z,25.93
2022-09-07T09:33:29.217Z,25.99
2022-09-07T09:36:00.872Z,26.04
2022-09-07T09:38:32.101Z,26.09
2022-09-07T09:41:09.483Z,26.17
2022-09-07T09:43:57.166Z,26.23
2022-09-07T09:46:37.886Z,26.29
2022-09-07T09:49:20.171Z,26.36
2022-09-07T09:54:49.845Z,26.43
2022-09-07T09:57:38.886Z,26.44
2022-09-07T10:00:29.835Z,26.46
2022-09-07T10:05:54.802Z,26.53
2022-09-07T10:08:32.894Z,26.60
2022-09-07T10:11:09.200Z,26.65
2022-09-07T10:13:56.257Z,26.72
2022-09-07T10:16:41.260Z,26.77
2022-09-07T10:19:40.176Z,26.85
2022-09-07T10:22:34.515Z,26.91
2022-09-07T10:25:05.715Z,26.93
2022-09-07T10:27:40.772Z,26.94
2022-09-07T10:30:16.995Z,26.98
2022-09-07T10:33:27.920Z,27.00
2022-09-07T10:36:20.294Z,27.02
2022-09-07T10:39:07.077Z,27.06
2022-09-07T10:41:44.807Z,27.08
2022-09-07T10:45:02.900Z,27.14
2022-09-07T10:48:33.816Z,27.20
2022-09-07T10:51:14.092Z,27.27
2022-09-07T10:54:31.671Z,27.38
2022-09-07T10:57:36.068Z,27.48
2022-09-07T11:00:11.803Z,27.56
2022-09-07T11:02:42.582Z,27.63
2022-09-07T11:05:36.052Z,27.73
2022-09-07T11:09:17.701Z,27.92
2022-09-07T11:12:30.434Z,28.05
2022-09-07T11:15:06.526Z,28.22
2022-09-07T11:17:53.305Z,28.28
2022-09-07T11:20:44.245Z,28.39
2022-09-07T11:23:54.766Z,28.43
2022-09-07T11:26:25.462Z,28.49
2022-09-07T11:32:02.754Z,28.64
2022-09-07T11:34:45.154Z,28.72
2022-09-07T11:37:39.238Z,28.81
2022-09-07T11:40:30.482Z,28.85
2022-09-07T11:43:30.503Z,28.87
2022-09-07T11:46:19.624Z,28.85
2022-09-07T11:48:53.087Z,28.88
2022-09-07T11:51:36.801Z,28.86
2022-09-07T11:54:41.363Z,28.86
2022-09-07T11:57:15.058Z,28.86
2022-09-07T12:00:22.806Z,28.90
2022-09-07T12:03:12.239Z,29.00
2022-09-07T12:06:25.641Z,29.22
2022-09-07T12:09:41.906Z,29.41
2022-09-07T12:12:18.711Z,29.63
2022-09-07T12:15:32.524Z,29.87
2022-09-07T12:18:54.314Z,30.07
2022-09-07T12:21:55.277Z,30.24
2022-09-07T12:24:40.856Z,30.39
2022-09-07T12:27:21.262Z,30.54
2022-09-07T12:29:57.942Z,30.69
2022-09-07T12:32:57.642Z,30.84
2022-09-07T12:35:31.821Z,31.02
2022-09-07T12:38:18.301Z,31.18
2022-09-07T12:41:25.255Z,31.36
2022-09-07T12:44:07.302Z,31.51
2022-09-07T12:46:35.552Z,31.60
2022-09-07T12:49:15.161Z,31.74
2022-09-07T12:52:15.194Z,31.85
2022-09-07T12:55:29.866Z,32.04
2022-09-07T12:58:34.503Z,32.28
2022-09-07T13:01:45.404Z,32.43
2022-09-07T13:04:34.846Z,32.59
2022-09-07T13:07:27.953Z,32.66
2022-09-07T13:10:03.167Z,32.78
2022-09-07T13:12:57.203Z,32.90
2022-09-07T13:15:48.620Z,33.00
2022-09-07T13:18:28.748Z,33.13
2022-09-07T13:21:07.174Z,33.25
2022-09-07T13:23:45.440Z,33.34
2022-09-07T13:26:54.818Z,33.43
2022-09-07T13:29:55.217Z,33.58
2022-09-07T13:35:29.477Z,33.71
2022-09-07T13:38:03.926Z,33.73
2022-09-07T13:40:38.105Z,34.02
2022-09-07T13:43:12.657Z,34.17
2022-09-07T13:45:55.311Z,34.39
2022-09-07T13:48:42.136Z,34.64
2022-09-07T13:51:35.522Z,34.86
2022-09-07T13:54:37.502Z,34.98
2022-09-07T13:57:32.130Z,34.94
2022-09-07T14:00:00.188Z,34.98
2022-09-07T14:02:36.024Z,35.01
2022-09-07T14:05:05.134Z,35.19
2022-09-07T14:07:32.965Z,35.17
2022-09-07T14:10:20.825Z,35.31
2022-09-07T14:13:08.276Z,35.33
2022-09-07T14:15:48.498Z,35.27
2022-09-07T14:18:32.211Z,35.46
2022-09-07T14:21:00.121Z,35.62
2022-09-07T14:23:32.469Z,35.71
2022-09-07T14:26:23.191Z,35.73
2022-09-07T14:28:55.599Z,35.69
2022-09-07T14:31:25.283Z,35.76
2022-09-07T14:33:58.588Z,35.84
2022-09-07T14:36:45.823Z,35.76
2022-09-07T14:39:17.250Z,35.80
2022-09-07T14:41:45.924Z,35.70
2022-09-07T14:44:40.482Z,35.75
2022-09-07T14:47:35.788Z,35.85
2022-09-07T14:50:05.999Z,35.88
2022-09-07T14:52:43.718Z,35.93
2022-09-07T14:55:41.984Z,36.13
2022-09-07T14:58:15.817Z,36.22
2022-09-07T15:00:45.982Z,36.14
2022-09-07T15:03:33.287Z,36.14
2022-09-07T15:06:03.417Z,36.14
2022-09-07T15:08:49.838Z,36.08
2022-09-07T15:11:35.654Z,36.02
2022-09-07T15:14:19.243Z,36.03
2022-09-07T15:19:50.819Z,36.00
2022-09-07T15:22:19.039Z,36.10
2022-09-07T15:24:50.415Z,36.14
2022-09-07T15:27:28.833Z,36.17
2022-09-07T15:29:56.586Z,36.19
2022-09-07T15:32:24.145Z,36.07
2022-09-07T15:34:52.022Z,35.92
2022-09-07T15:40:21.938Z,35.90
2022-09-07T15:43:19.485Z,35.75
2022-09-07T15:45:39.798Z,35.62
2022-09-07T15:48:07.645Z,35.55
2022-09-07T15:50:35.161Z,35.56
2022-09-07T15:53:02.829Z,35.57
2022-09-07T15:55:32.683Z,35.55
2022-09-07T15:58:11.490Z,35.56
2022-09-07T16:00:41.362Z,35.64
2022-09-07T16:03:10.009Z,35.75
2022-09-07T16:05:44.113Z,35.85
2022-09-07T16:08:32.846Z,36.04
2022-09-07T16:11:17.919Z,36.27
2022-09-07T16:13:48.123Z,36.42
2022-09-07T16:16:16.394Z,36.63
2022-09-07T16:18:46.881Z,36.78
2022-09-07T16:21:16.264Z,36.97
2022-09-07T16:23:50.235Z,37.08
2022-09-07T16:26:23.334Z,37.18
2022-09-07T16:28:53.493Z,37.25
2022-09-07T16:31:26.594Z,37.21
2022-09-07T16:33:54.870Z,37.13
2022-09-07T16:36:23.723Z,36.97
2022-09-07T16:39:00.287Z,36.70
2022-09-07T16:41:31.835Z,36.24
2022-09-07T16:43:59.453Z,35.64
2022-09-07T16:46:30.712Z,35.03
2022-09-07T16:48:58.472Z,34.33
2022-09-07T16:51:26.111Z,33.65
2022-09-07T16:53:56.152Z,32.98
2022-09-07T16:56:27.141Z,32.36
2022-09-07T16:59:03.881Z,31.80
2022-09-07T17:01:38.105Z,31.27
2022-09-07T17:04:10.706Z,30.83
2022-09-07T17:06:40.230Z,30.34
2022-09-07T17:09:08.642Z,29.99
2022-09-07T17:11:37.243Z,29.63
2022-09-07T17:14:06.580Z,29.31
2022-09-07T17:16:40.401Z,28.98
2022-09-07T17:22:00.320Z,28.50
2022-09-07T17:24:29.625Z,28.30
2022-09-07T17:27:00.162Z,28.10
2022-09-07T17:29:30.484Z,27.92
2022-09-07T17:34:46.801Z,27.60
2022-09-07T17:37:14.593Z,27.49
2022-09-07T17:39:42.136Z,27.37
2022-09-07T17:42:10.031Z,27.27
2022-09-07T17:44:38.447Z,27.17
2022-09-07T17:47:06.622Z,27.08
2022-09-07T17:49:34.368Z,27.01
2022-09-07T17:52:02.956Z,26.93
2022-09-07T17:54:30.613Z,26.84
2022-09-07T17:56:58.541Z,26.78
2022-09-07T18:02:14.493Z,26.67
2022-09-07T18:04:42.963Z,26.63
2022-09-07T18:07:10.789Z,26.59
2022-09-07T18:09:38.371Z,26.59
2022-09-07T18:12:06.488Z,26.55
2022-09-07T18:14:34.025Z,26.45
2022-09-07T18:17:01.596Z,26.34
2022-09-07T18:19:29.447Z,26.26
2022-09-07T18:21:57.340Z,26.21
2022-09-07T18:24:25.310Z,26.15
2022-09-07T18:26:54.043Z,26.06
2022-09-07T18:29:29.858Z,25.99
2022-09-07T18:32:08.004Z,25.97
2022-09-07T18:34:40.612Z,25.87
2022-09-07T18:37:12.221Z,25.83
2022-09-07T18:39:40.891Z,25.72
2022-09-07T18:42:09.589Z,25.58
2022-09-07T18:47:28.919Z,25.51
2022-09-07T18:49:57.806Z,25.49
2022-09-07T18:55:15.479Z,25.54
2022-09-07T18:57:43.220Z,25.44
2022-09-07T19:00:13.106Z,25.45
2022-09-07T19:02:41.175Z,25.38
2022-09-07T19:07:57.258Z,25.20
2022-09-07T19:10:24.807Z,25.10
2022-09-07T19:12:52.346Z,25.02
2022-09-07T19:15:20.571Z,24.95
2022-09-07T19:17:48.222Z,24.91
2022-09-07T19:20:15.869Z,24.88
2022-09-07T19:22:43.723Z,24.87
2022-09-07T19:25:11.524Z,24.90
2022-09-07T19:27:39.313Z,24.93
2022-09-07T19:30:08.232Z,24.95
2022-09-07T19:32:35.874Z,24.99
2022-09-07T19:35:03.644Z,25.05
2022-09-07T19:37:32.809Z,25.08
2022-09-07T19:40:01.350Z,25.11
2022-09-07T19:42:29.616Z,25.12
2022-09-07T19:44:57.381Z,25.13
2022-09-07T19:47:24.988Z,25.15
2022-09-07T19:49:52.420Z,25.18
2022-09-07T19:52:22.762Z,25.22
2022-09-07T19:54:50.393Z,25.23
2022-09-07T19:57:18.059Z,25.23
2022-09-07T19:59:47.269Z,25.25
2022-09-07T20:02:14.741Z,25.26
2022-09-07T20:04:42.284Z,25.25
2022-09-07T20:07:10.051Z,25.23
2022-09-07T20:09:37.580Z,25.23
2022-09-07T20:12:07.460Z,25.23
2022-09-07T20:14:35.344Z,25.22
2022-09-07T20:17:02.915Z,25.18
2022-09-07T20:19:30.545Z,25.13
2022-09-07T20:21:58.359Z,25.04
2022-09-07T20:24:25.904Z,24.97
2022-09-07T20:26:53.536Z,24.89
2022-09-07T20:29:27.753Z,24.84
2022-09-07T20:32:00.631Z,24.77
2022-09-07T20:34:29.262Z,24.73
2022-09-07T20:36:57.296Z,24.66
2022-09-07T20:39:25.226Z,24.60
2022-09-07T20:41:54.037Z,24.58
2022-09-07T20:44:21.481Z,24.56
2022-09-07T20:46:49.040Z,24.57
2022-09-07T20:49:16.896Z,24.59
2022-09-07T20:51:44.657Z,24.61
2022-09-07T20:54:12.584Z,24.63
2022-09-07T20:56:40.394Z,24.64
2022-09-07T20:59:08.148Z,24.66
2022-09-07T21:01:36.653Z,24.68
2022-09-07T21:04:06.170Z,24.70
2022-09-07T21:06:33.929Z,24.74
2022-09-07T21:09:01.948Z,24.77
2022-09-07T21:11:36.073Z,24.83
2022-09-07T21:14:11.526Z,24.86
2022-09-07T21:16:39.866Z,24.92
2022-09-07T21:19:11.058Z,24.92
2022-09-07T21:21:41.973Z,24.92
2022-09-07T21:24:22.532Z,24.92
2022-09-07T21:26:51.501Z,24.92
2022-09-07T21:29:23.805Z,24.92
2022-09-07T21:31:54.576Z,24.90
2022-09-07T21:34:23.281Z,24.88
2022-09-07T21:36:51.250Z,24.85
2022-09-07T21:39:19.403Z,24.83
2022-09-07T21:41:47.459Z,24.82
2022-09-07T21:44:16.267Z,24.80
2022-09-07T21:46:45.283Z,24.79
2022-09-07T21:49:13.388Z,24.78
2022-09-07T21:51:40.946Z,24.78
2022-09-07T21:54:08.621Z,24.75
2022-09-07T21:56:36.526Z,24.73
2022-09-07T21:59:05.189Z,24.72
2022-09-07T22:01:32.920Z,24.72
2022-09-07T22:04:07.035Z,24.70
2022-09-07T22:06:35.556Z,24.69
2022-09-07T22:09:05.166Z,24.69
2022-09-07T22:11:33.437Z,24.68
2022-09-07T22:14:04.287Z,24.70
2022-09-07T22:16:35.674Z,24.70
2022-09-07T22:19:03.988Z,24.69
2022-09-07T22:21:32.460Z,24.68
2022-09-07T22:24:04.300Z,24.68
2022-09-07T22:26:37.802Z,24.68
2022-09-07T22:29:08.711Z,24.64
2022-09-07T22:31:38.776Z,24.62
2022-09-07T22:34:09.433Z,24.61
2022-09-07T22:36:40.974Z,24.61
2022-09-07T22:39:13.751Z,24.61
2022-09-07T22:41:42.562Z,24.58
2022-09-07T22:44:14.964Z,24.56
2022-09-07T22:46:45.966Z,24.51
2022-09-07T22:49:16.404Z,24.48
2022-09-07T22:51:44.662Z,24.46
2022-09-07T22:54:12.218Z,24.46
2022-09-07T22:56:40.426Z,24.47
2022-09-07T22:59:10.457Z,24.46
2022-09-07T23:01:38.737Z,24.44
2022-09-07T23:04:07.389Z,24.43
2022-09-07T23:06:41.564Z,24.43
2022-09-07T23:09:16.548Z,24.41
2022-09-07T23:11:46.071Z,24.42
2022-09-07T23:14:18.579Z,24.43
2022-09-07T23:16:46.905Z,24.42
2022-09-07T23:19:18.023Z,24.42
2022-09-07T23:21:46.103Z,24.40
2022-09-07T23:24:17.203Z,24.39
2022-09-07T23:26:46.673Z,24.38
2022-09-07T23:29:15.646Z,24.36
2022-09-07T23:31:45.186Z,24.33
2022-09-07T23:34:12.995Z,24.33
2022-09-07T23:36:40.409Z,24.32
2022-09-07T23:39:07.848Z,24.32
2022-09-07T23:41:35.501Z,24.32
2022-09-07T23:44:03.286Z,24.31
2022-09-07T23:46:30.790Z,24.30
2022-09-07T23:48:58.565Z,24.27
2022-09-07T23:51:26.081Z,24.27
2022-09-07T23:53:53.580Z,24.25
2022-09-07T23:56:24.440Z,24.25
2022-09-07T23:58:52.231Z,24.24
